sensor_id;sensor_type;location;lat;lon;timestamp;temperature;humidity
44190;DHT22;29856;52.144;5.430;2022-11-09T00:00:49;14.00;99.90
44190;DHT22;29856;52.144;5.430;2022-11-09T00:03:15;13.90;99.90
44190;DHT22;29856;52.144;5.430;2022-11-09T00:05:40;14.00;99.90
44190;DHT22;29856;52.144;5.430;2022-11-09T00:08:10;14.00;99.90
44190;DHT22;29856;52.144;5.430;2022-11-09T00:10:36;14.00;99.90
44190;DHT22;29856;52.144;5.430;2022-11-09T00:13:02;14.00;99.90
44190;DHT22;29856;52.144;5.430;2022-11-09T00:15:28;14.00;99.90
44190;DHT22;29856;52.144;5.430;2022-11-09T00:17:54;14.00;99.90
44190;DHT22;29856;52.144;5.430;2022-11-09T00:20:19;14.00;99.90
44190;DHT22;29856;52.144;5.430;2022-11-09T00:22:48;13.90;99.90
44190;DHT22;29856;52.144;5.430;2022-11-09T00:25:14;13.90;99.90
44190;DHT22;29856;52.144;5.430;2022-11-09T00:27:40;13.90;99.90
44190;DHT22;29856;52.144;5.430;2022-11-09T00:30:06;13.90;99.90
44190;DHT22;29856;52.144;5.430;2022-11-09T00:32:31;13.90;99.90
44190;DHT22;29856;52.144;5.430;2022-11-09T00:34:57;13.90;99.90
44190;DHT22;29856;52.144;5.430;2022-11-09T00:37:22;13.90;99.90
44190;DHT22;29856;52.144;5.430;2022-11-09T00:39:47;13.90;99.90
44190;DHT22;29856;52.144;5.430;2022-11-09T00:42:13;14.00;99.90
44190;DHT22;29856;52.144;5.430;2022-11-09T00:44:38;13.90;99.90
44190;DHT22;29856;52.144;5.430;2022-11-09T00:47:04;13.90;99.90
44190;DHT22;29856;52.144;5.430;2022-11-09T00:49:29;13.90;99.90
44190;DHT22;29856;52.144;5.430;2022-11-09T00:51:55;13.80;99.90
44190;DHT22;29856;52.144;5.430;2022-11-09T00:54:20;13.80;99.90
44190;DHT22;29856;52.144;5.430;2022-11-09T00:56:46;13.80;99.90
44190;DHT22;29856;52.144;5.430;2022-11-09T00:59:11;13.80;99.90
44190;DHT22;29856;52.144;5.430;2022-11-09T01:01:36;13.80;99.90
44190;DHT22;29856;52.144;5.430;2022-11-09T01:04:03;13.70;99.90
44190;DHT22;29856;52.144;5.430;2022-11-09T01:06:28;13.70;99.90
44190;DHT22;29856;52.144;5.430;2022-11-09T01:08:54;13.70;99.90
44190;DHT22;29856;52.144;5.430;2022-11-09T01:11:20;13.70;99.90
44190;DHT22;29856;52.144;5.430;2022-11-09T01:13:46;13.60;99.90
44190;DHT22;29856;52.144;5.430;2022-11-09T01:16:15;13.60;99.90
44190;DHT22;29856;52.144;5.430;2022-11-09T01:18:40;13.60;99.90
44190;DHT22;29856;52.144;5.430;2022-11-09T01:21:09;13.60;99.90
44190;DHT22;29856;52.144;5.430;2022-11-09T01:23:35;13.60;99.90
44190;DHT22;29856;52.144;5.430;2022-11-09T01:26:04;13.60;99.90
44190;DHT22;29856;52.144;5.430;2022-11-09T01:28:30;13.50;99.90
44190;DHT22;29856;52.144;5.430;2022-11-09T01:31:03;13.50;99.90
44190;DHT22;29856;52.144;5.430;2022-11-09T01:33:29;13.50;99.90
44190;DHT22;29856;52.144;5.430;2022-11-09T01:36:04;13.50;99.90
44190;DHT22;29856;52.144;5.430;2022-11-09T01:38:30;13.50;99.90
44190;DHT22;29856;52.144;5.430;2022-11-09T01:40:55;13.50;99.90
44190;DHT22;29856;52.144;5.430;2022-11-09T01:43:23;13.50;99.90
44190;DHT22;29856;52.144;5.430;2022-11-09T01:45:59;13.50;99.90
44190;DHT22;29856;52.144;5.430;2022-11-09T01:48:37;13.50;99.90
44190;DHT22;29856;52.144;5.430;2022-11-09T01:51:12;13.50;99.90
44190;DHT22;29856;52.144;5.430;2022-11-09T01:53:40;13.50;99.90
44190;DHT22;29856;52.144;5.430;2022-11-09T01:56:10;13.60;99.90
44190;DHT22;29856;52.144;5.430;2022-11-09T01:59:00;13.50;99.90
44190;DHT22;29856;52.144;5.430;2022-11-09T02:01:24;13.50;99.90
44190;DHT22;29856;52.144;5.430;2022-11-09T02:03:56;13.50;99.90
44190;DHT22;29856;52.144;5.430;2022-11-09T02:06:24;13.50;99.90
44190;DHT22;29856;52.144;5.430;2022-11-09T02:08:53;13.50;99.90
44190;DHT22;29856;52.144;5.430;2022-11-09T02:11:21;13.50;99.90
44190;DHT22;29856;52.144;5.430;2022-11-09T02:13:52;13.50;99.90
44190;DHT22;29856;52.144;5.430;2022-11-09T02:16:18;13.50;99.90
44190;DHT22;29856;52.144;5.430;2022-11-09T02:18:56;13.50;99.90
44190;DHT22;29856;52.144;5.430;2022-11-09T02:21:24;13.50;99.90
44190;DHT22;29856;52.144;5.430;2022-11-09T02:23:51;13.50;99.90
44190;DHT22;29856;52.144;5.430;2022-11-09T02:28:56;13.50;99.90
44190;DHT22;29856;52.144;5.430;2022-11-09T02:31:27;13.50;99.90
44190;DHT22;29856;52.144;5.430;2022-11-09T02:33:59;13.50;99.90
44190;DHT22;29856;52.144;5.430;2022-11-09T02:36:26;13.50;99.90
44190;DHT22;29856;52.144;5.430;2022-11-09T02:38:53;13.50;99.90
44190;DHT22;29856;52.144;5.430;2022-11-09T02:41:20;13.50;99.90
44190;DHT22;29856;52.144;5.430;2022-11-09T02:43:47;13.50;99.90
44190;DHT22;29856;52.144;5.430;2022-11-09T02:46:24;13.50;99.90
44190;DHT22;29856;52.144;5.430;2022-11-09T02:48:49;13.50;99.90
44190;DHT22;29856;52.144;5.430;2022-11-09T02:51:15;13.40;99.90
44190;DHT22;29856;52.144;5.430;2022-11-09T02:53:40;13.40;99.90
44190;DHT22;29856;52.144;5.430;2022-11-09T02:56:06;13.40;99.90
44190;DHT22;29856;52.144;5.430;2022-11-09T02:58:31;13.40;99.90
44190;DHT22;29856;52.144;5.430;2022-11-09T03:00:57;13.50;99.90
44190;DHT22;29856;52.144;5.430;2022-11-09T03:03:22;13.50;99.90
44190;DHT22;29856;52.144;5.430;2022-11-09T03:05:48;13.50;99.90
44190;DHT22;29856;52.144;5.430;2022-11-09T03:08:13;13.50;99.90
44190;DHT22;29856;52.144;5.430;2022-11-09T03:10:39;13.40;99.90
44190;DHT22;29856;52.144;5.430;2022-11-09T03:13:04;13.50;99.90
44190;DHT22;29856;52.144;5.430;2022-11-09T03:15:30;13.50;99.90
44190;DHT22;29856;52.144;5.430;2022-11-09T03:17:55;13.50;99.90
44190;DHT22;29856;52.144;5.430;2022-11-09T03:20:21;13.40;99.90
44190;DHT22;29856;52.144;5.430;2022-11-09T03:22:46;13.40;99.90
44190;DHT22;29856;52.144;5.430;2022-11-09T03:25:11;13.40;99.90
44190;DHT22;29856;52.144;5.430;2022-11-09T03:27:37;13.40;99.90
44190;DHT22;29856;52.144;5.430;2022-11-09T03:30:03;13.40;99.90
44190;DHT22;29856;52.144;5.430;2022-11-09T03:32:28;13.30;99.90
44190;DHT22;29856;52.144;5.430;2022-11-09T03:34:54;13.40;99.90
44190;DHT22;29856;52.144;5.430;2022-11-09T03:37:19;13.30;99.90
44190;DHT22;29856;52.144;5.430;2022-11-09T03:39:45;13.30;99.90
44190;DHT22;29856;52.144;5.430;2022-11-09T03:42:10;13.30;99.90
44190;DHT22;29856;52.144;5.430;2022-11-09T03:44:35;13.30;99.90
44190;DHT22;29856;52.144;5.430;2022-11-09T03:47:01;13.30;99.90
44190;DHT22;29856;52.144;5.430;2022-11-09T03:49:26;13.30;99.90
44190;DHT22;29856;52.144;5.430;2022-11-09T03:51:52;13.20;99.90
44190;DHT22;29856;52.144;5.430;2022-11-09T03:54:17;13.20;99.90
44190;DHT22;29856;52.144;5.430;2022-11-09T03:56:43;13.20;99.90
44190;DHT22;29856;52.144;5.430;2022-11-09T03:59:08;13.10;99.90
44190;DHT22;29856;52.144;5.430;2022-11-09T04:01:34;13.10;99.90
44190;DHT22;29856;52.144;5.430;2022-11-09T04:03:59;13.10;99.90
44190;DHT22;29856;52.144;5.430;2022-11-09T04:06:25;13.10;99.90
44190;DHT22;29856;52.144;5.430;2022-11-09T04:08:50;13.10;99.90
44190;DHT22;29856;52.144;5.430;2022-11-09T04:11:16;13.10;99.90
44190;DHT22;29856;52.144;5.430;2022-11-09T04:13:41;13.10;99.90
44190;DHT22;29856;52.144;5.430;2022-11-09T04:16:07;13.10;99.90
44190;DHT22;29856;52.144;5.430;2022-11-09T04:18:32;13.00;99.90
44190;DHT22;29856;52.144;5.430;2022-11-09T04:20:58;13.00;99.90
44190;DHT22;29856;52.144;5.430;2022-11-09T04:23:23;13.00;99.90
44190;DHT22;29856;52.144;5.430;2022-11-09T04:25:49;13.00;99.90
44190;DHT22;29856;52.144;5.430;2022-11-09T04:28:15;13.00;99.90
44190;DHT22;29856;52.144;5.430;2022-11-09T04:30:40;13.00;99.90
44190;DHT22;29856;52.144;5.430;2022-11-09T04:33:05;13.00;99.90
44190;DHT22;29856;52.144;5.430;2022-11-09T04:35:32;13.00;99.90
44190;DHT22;29856;52.144;5.430;2022-11-09T04:38:02;13.00;99.90
44190;DHT22;29856;52.144;5.430;2022-11-09T04:40:30;12.90;99.90
44190;DHT22;29856;52.144;5.430;2022-11-09T04:42:58;12.90;99.90
44190;DHT22;29856;52.144;5.430;2022-11-09T04:45:24;12.90;99.90
44190;DHT22;29856;52.144;5.430;2022-11-09T04:47:49;12.90;99.90
44190;DHT22;29856;52.144;5.430;2022-11-09T04:50:15;13.00;99.90
44190;DHT22;29856;52.144;5.430;2022-11-09T04:52:40;12.90;99.90
44190;DHT22;29856;52.144;5.430;2022-11-09T04:55:07;12.90;99.90
44190;DHT22;29856;52.144;5.430;2022-11-09T04:57:33;12.90;99.90
44190;DHT22;29856;52.144;5.430;2022-11-09T04:59:58;12.90;99.90
44190;DHT22;29856;52.144;5.430;2022-11-09T05:02:23;12.80;99.90
44190;DHT22;29856;52.144;5.430;2022-11-09T05:04:49;12.80;99.90
44190;DHT22;29856;52.144;5.430;2022-11-09T05:07:14;12.90;99.90
44190;DHT22;29856;52.144;5.430;2022-11-09T05:09:40;12.80;99.90
44190;DHT22;29856;52.144;5.430;2022-11-09T05:12:05;12.80;99.90
44190;DHT22;29856;52.144;5.430;2022-11-09T05:14:31;12.80;99.90
44190;DHT22;29856;52.144;5.430;2022-11-09T05:16:57;12.80;99.90
44190;DHT22;29856;52.144;5.430;2022-11-09T05:19:22;12.80;99.90
44190;DHT22;29856;52.144;5.430;2022-11-09T05:21:48;12.80;99.90
44190;DHT22;29856;52.144;5.430;2022-11-09T05:24:13;12.80;99.90
44190;DHT22;29856;52.144;5.430;2022-11-09T05:26:40;12.70;99.90
44190;DHT22;29856;52.144;5.430;2022-11-09T05:29:10;12.80;99.90
44190;DHT22;29856;52.144;5.430;2022-11-09T05:31:36;12.80;99.90
44190;DHT22;29856;52.144;5.430;2022-11-09T05:34:03;12.80;99.90
44190;DHT22;29856;52.144;5.430;2022-11-09T05:36:29;12.70;99.90
44190;DHT22;29856;52.144;5.430;2022-11-09T05:38:55;12.70;99.90
44190;DHT22;29856;52.144;5.430;2022-11-09T05:41:21;12.70;99.90
44190;DHT22;29856;52.144;5.430;2022-11-09T05:43:47;12.70;99.90
44190;DHT22;29856;52.144;5.430;2022-11-09T05:46:13;12.70;99.90
44190;DHT22;29856;52.144;5.430;2022-11-09T05:48:40;12.70;99.90
44190;DHT22;29856;52.144;5.430;2022-11-09T05:51:07;12.70;99.90
44190;DHT22;29856;52.144;5.430;2022-11-09T05:53:33;12.70;99.90
44190;DHT22;29856;52.144;5.430;2022-11-09T05:56:09;12.70;99.90
44190;DHT22;29856;52.144;5.430;2022-11-09T05:58:35;12.60;99.90
44190;DHT22;29856;52.144;5.430;2022-11-09T06:01:06;12.60;99.90
44190;DHT22;29856;52.144;5.430;2022-11-09T06:03:31;12.60;99.90
44190;DHT22;29856;52.144;5.430;2022-11-09T06:06:00;12.60;99.90
44190;DHT22;29856;52.144;5.430;2022-11-09T06:08:25;12.60;99.90
44190;DHT22;29856;52.144;5.430;2022-11-09T06:11:00;12.60;99.90
44190;DHT22;29856;52.144;5.430;2022-11-09T06:13:26;12.60;99.90
44190;DHT22;29856;52.144;5.430;2022-11-09T06:15:56;12.60;99.90
44190;DHT22;29856;52.144;5.430;2022-11-09T06:18:23;12.60;99.90
44190;DHT22;29856;52.144;5.430;2022-11-09T06:20:57;12.60;99.90
44190;DHT22;29856;52.144;5.430;2022-11-09T06:23:23;12.60;99.90
44190;DHT22;29856;52.144;5.430;2022-11-09T06:25:48;12.60;99.90
44190;DHT22;29856;52.144;5.430;2022-11-09T06:28:14;12.60;99.90
44190;DHT22;29856;52.144;5.430;2022-11-09T06:30:39;12.60;99.90
44190;DHT22;29856;52.144;5.430;2022-11-09T06:33:05;12.60;99.90
44190;DHT22;29856;52.144;5.430;2022-11-09T06:35:30;12.60;99.90
44190;DHT22;29856;52.144;5.430;2022-11-09T06:37:57;12.60;99.90
44190;DHT22;29856;52.144;5.430;2022-11-09T06:40:22;12.60;99.90
44190;DHT22;29856;52.144;5.430;2022-11-09T06:42:48;12.60;99.90
44190;DHT22;29856;52.144;5.430;2022-11-09T06:45:13;12.60;99.90
44190;DHT22;29856;52.144;5.430;2022-11-09T06:47:39;12.60;99.90
44190;DHT22;29856;52.144;5.430;2022-11-09T06:50:05;12.60;99.90
44190;DHT22;29856;52.144;5.430;2022-11-09T06:52:30;12.60;99.90
44190;DHT22;29856;52.144;5.430;2022-11-09T06:54:56;12.60;99.90
44190;DHT22;29856;52.144;5.430;2022-11-09T06:57:21;12.60;99.90
44190;DHT22;29856;52.144;5.430;2022-11-09T06:59:46;12.60;99.90
44190;DHT22;29856;52.144;5.430;2022-11-09T07:02:15;12.60;99.90
44190;DHT22;29856;52.144;5.430;2022-11-09T07:04:40;12.50;99.90
44190;DHT22;29856;52.144;5.430;2022-11-09T07:07:06;12.50;99.90
44190;DHT22;29856;52.144;5.430;2022-11-09T07:09:32;12.50;99.90
44190;DHT22;29856;52.144;5.430;2022-11-09T07:11:57;12.50;99.90
44190;DHT22;29856;52.144;5.430;2022-11-09T07:14:22;12.50;99.90
44190;DHT22;29856;52.144;5.430;2022-11-09T07:16:48;12.50;99.90
44190;DHT22;29856;52.144;5.430;2022-11-09T07:19:13;12.50;99.90
44190;DHT22;29856;52.144;5.430;2022-11-09T07:21:39;12.50;99.90
44190;DHT22;29856;52.144;5.430;2022-11-09T07:24:04;12.50;99.90
44190;DHT22;29856;52.144;5.430;2022-11-09T07:26:30;12.50;99.90
44190;DHT22;29856;52.144;5.430;2022-11-09T07:28:55;12.50;99.90
44190;DHT22;29856;52.144;5.430;2022-11-09T07:31:21;12.50;99.90
44190;DHT22;29856;52.144;5.430;2022-11-09T07:33:48;12.50;99.90
44190;DHT22;29856;52.144;5.430;2022-11-09T07:36:14;12.50;99.90
44190;DHT22;29856;52.144;5.430;2022-11-09T07:38:39;12.60;99.90
44190;DHT22;29856;52.144;5.430;2022-11-09T07:41:05;12.60;99.90
44190;DHT22;29856;52.144;5.430;2022-11-09T07:43:30;12.70;99.90
44190;DHT22;29856;52.144;5.430;2022-11-09T07:45:56;12.70;99.90
44190;DHT22;29856;52.144;5.430;2022-11-09T07:48:22;12.70;99.90
44190;DHT22;29856;52.144;5.430;2022-11-09T07:50:48;12.70;99.90
44190;DHT22;29856;52.144;5.430;2022-11-09T07:53:14;12.80;99.90
44190;DHT22;29856;52.144;5.430;2022-11-09T07:55:40;12.80;99.90
44190;DHT22;29856;52.144;5.430;2022-11-09T07:58:09;12.80;99.90
44190;DHT22;29856;52.144;5.430;2022-11-09T08:00:36;12.80;99.90
44190;DHT22;29856;52.144;5.430;2022-11-09T08:03:02;12.80;99.90
44190;DHT22;29856;52.144;5.430;2022-11-09T08:05:28;12.80;99.90
44190;DHT22;29856;52.144;5.430;2022-11-09T08:07:58;12.90;99.90
44190;DHT22;29856;52.144;5.430;2022-11-09T08:10:25;12.90;99.90
44190;DHT22;29856;52.144;5.430;2022-11-09T08:12:57;12.90;99.90
44190;DHT22;29856;52.144;5.430;2022-11-09T08:15:23;12.90;99.90
44190;DHT22;29856;52.144;5.430;2022-11-09T08:17:49;12.90;99.90
44190;DHT22;29856;52.144;5.430;2022-11-09T08:20:15;13.00;99.90
44190;DHT22;29856;52.144;5.430;2022-11-09T08:22:42;13.00;99.90
44190;DHT22;29856;52.144;5.430;2022-11-09T08:25:08;13.00;99.90
44190;DHT22;29856;52.144;5.430;2022-11-09T08:27:33;13.00;99.90
44190;DHT22;29856;52.144;5.430;2022-11-09T08:29:59;13.00;99.90
44190;DHT22;29856;52.144;5.430;2022-11-09T08:32:24;13.10;99.90
44190;DHT22;29856;52.144;5.430;2022-11-09T08:34:49;13.10;99.90
44190;DHT22;29856;52.144;5.430;2022-11-09T08:37:15;13.10;99.90
44190;DHT22;29856;52.144;5.430;2022-11-09T08:39:41;13.10;99.90
44190;DHT22;29856;52.144;5.430;2022-11-09T08:42:06;13.20;99.90
44190;DHT22;29856;52.144;5.430;2022-11-09T08:44:31;13.20;99.90
44190;DHT22;29856;52.144;5.430;2022-11-09T08:46:57;13.30;99.90
44190;DHT22;29856;52.144;5.430;2022-11-09T08:49:22;13.30;99.90
44190;DHT22;29856;52.144;5.430;2022-11-09T08:51:48;13.30;99.90
44190;DHT22;29856;52.144;5.430;2022-11-09T08:54:13;13.40;99.90
44190;DHT22;29856;52.144;5.430;2022-11-09T08:56:39;13.50;99.90
44190;DHT22;29856;52.144;5.430;2022-11-09T08:59:04;13.50;99.90
44190;DHT22;29856;52.144;5.430;2022-11-09T09:01:30;13.60;99.90
44190;DHT22;29856;52.144;5.430;2022-11-09T09:03:55;13.60;99.90
44190;DHT22;29856;52.144;5.430;2022-11-09T09:06:21;13.60;99.90
44190;DHT22;29856;52.144;5.430;2022-11-09T09:08:46;13.70;99.90
44190;DHT22;29856;52.144;5.430;2022-11-09T09:11:11;13.70;99.90
44190;DHT22;29856;52.144;5.430;2022-11-09T09:13:37;13.80;99.90
44190;DHT22;29856;52.144;5.430;2022-11-09T09:16:13;13.90;99.90
44190;DHT22;29856;52.144;5.430;2022-11-09T09:18:39;13.90;99.90
44190;DHT22;29856;52.144;5.430;2022-11-09T09:21:06;13.90;99.90
44190;DHT22;29856;52.144;5.430;2022-11-09T09:23:32;14.00;99.90
44190;DHT22;29856;52.144;5.430;2022-11-09T09:25:57;14.10;99.90
44190;DHT22;29856;52.144;5.430;2022-11-09T09:28:23;14.00;99.90
44190;DHT22;29856;52.144;5.430;2022-11-09T09:30:48;14.00;99.90
44190;DHT22;29856;52.144;5.430;2022-11-09T09:33:14;14.10;99.90
44190;DHT22;29856;52.144;5.430;2022-11-09T09:35:39;14.10;99.90
44190;DHT22;29856;52.144;5.430;2022-11-09T09:38:04;14.10;99.90
44190;DHT22;29856;52.144;5.430;2022-11-09T09:40:51;14.10;99.90
44190;DHT22;29856;52.144;5.430;2022-11-09T09:46:03;14.20;99.90
44190;DHT22;29856;52.144;5.430;2022-11-09T09:48:44;14.30;99.90
44190;DHT22;29856;52.144;5.430;2022-11-09T09:51:19;14.30;99.90
44190;DHT22;29856;52.144;5.430;2022-11-09T09:53:55;14.40;99.90
44190;DHT22;29856;52.144;5.430;2022-11-09T09:56:31;14.40;99.90
44190;DHT22;29856;52.144;5.430;2022-11-09T09:59:03;14.40;99.90
44190;DHT22;29856;52.144;5.430;2022-11-09T10:01:43;14.40;99.90
44190;DHT22;29856;52.144;5.430;2022-11-09T10:04:20;14.30;99.90
44190;DHT22;29856;52.144;5.430;2022-11-09T10:06:49;14.50;99.90
44190;DHT22;29856;52.144;5.430;2022-11-09T10:23:18;14.70;99.90
44190;DHT22;29856;52.144;5.430;2022-11-09T10:25:46;14.80;99.90
44190;DHT22;29856;52.144;5.430;2022-11-09T10:28:16;14.80;99.90
44190;DHT22;29856;52.144;5.430;2022-11-09T10:30:42;14.80;99.90
44190;DHT22;29856;52.144;5.430;2022-11-09T10:35:40;14.80;99.90
44190;DHT22;29856;52.144;5.430;2022-11-09T10:38:13;14.70;99.90
44190;DHT22;29856;52.144;5.430;2022-11-09T10:41:23;14.70;99.90
44190;DHT22;29856;52.144;5.430;2022-11-09T10:43:43;14.80;99.90
44190;DHT22;29856;52.144;5.430;2022-11-09T10:46:09;14.80;99.90
44190;DHT22;29856;52.144;5.430;2022-11-09T10:48:37;14.90;99.90
44190;DHT22;29856;52.144;5.430;2022-11-09T10:51:03;14.90;99.90
44190;DHT22;29856;52.144;5.430;2022-11-09T10:53:32;14.90;99.90
44190;DHT22;29856;52.144;5.430;2022-11-09T10:58:33;14.90;99.90
44190;DHT22;29856;52.144;5.430;2022-11-09T11:01:34;14.90;99.90
44190;DHT22;29856;52.144;5.430;2022-11-09T11:04:20;15.00;99.90
44190;DHT22;29856;52.144;5.430;2022-11-09T11:06:46;14.90;99.90
44190;DHT22;29856;52.144;5.430;2022-11-09T11:09:14;14.90;99.90
44190;DHT22;29856;52.144;5.430;2022-11-09T11:11:40;14.90;99.90
44190;DHT22;29856;52.144;5.430;2022-11-09T11:14:33;15.00;99.90
44190;DHT22;29856;52.144;5.430;2022-11-09T11:17:00;15.00;99.90
44190;DHT22;29856;52.144;5.430;2022-11-09T11:30:05;14.90;99.90
44190;DHT22;29856;52.144;5.430;2022-11-09T11:32:33;15.00;99.90
44190;DHT22;29856;52.144;5.430;2022-11-09T11:34:59;15.00;99.90
44190;DHT22;29856;52.144;5.430;2022-11-09T11:37:51;14.90;99.90
44190;DHT22;29856;52.144;5.430;2022-11-09T11:40:46;14.80;99.90
44190;DHT22;29856;52.144;5.430;2022-11-09T11:43:26;14.90;99.90
44190;DHT22;29856;52.144;5.430;2022-11-09T11:46:03;14.70;99.90
44190;DHT22;29856;52.144;5.430;2022-11-09T12:00:00;14.70;99.90
44190;DHT22;29856;52.144;5.430;2022-11-09T12:08:03;14.20;99.90
44190;DHT22;29856;52.144;5.430;2022-11-09T12:13:04;14.00;99.90
44190;DHT22;29856;52.144;5.430;2022-11-09T12:21:17;14.00;99.90
44190;DHT22;29856;52.144;5.430;2022-11-09T12:26:39;14.10;99.90
44190;DHT22;29856;52.144;5.430;2022-11-09T12:29:22;14.20;99.90
44190;DHT22;29856;52.144;5.430;2022-11-09T12:31:53;14.20;99.90
44190;DHT22;29856;52.144;5.430;2022-11-09T12:34:36;14.20;99.90
44190;DHT22;29856;52.144;5.430;2022-11-09T12:37:08;14.20;99.90
44190;DHT22;29856;52.144;5.430;2022-11-09T12:39:41;14.10;99.90
44190;DHT22;29856;52.144;5.430;2022-11-09T12:42:26;14.10;99.90
44190;DHT22;29856;52.144;5.430;2022-11-09T12:45:00;14.20;99.90
44190;DHT22;29856;52.144;5.430;2022-11-09T12:47:30;14.30;99.90
44190;DHT22;29856;52.144;5.430;2022-11-09T12:49:58;14.30;99.90
44190;DHT22;29856;52.144;5.430;2022-11-09T12:52:26;14.30;99.90
44190;DHT22;29856;52.144;5.430;2022-11-09T12:54:52;14.30;99.90
44190;DHT22;29856;52.144;5.430;2022-11-09T12:57:24;14.40;99.90
44190;DHT22;29856;52.144;5.430;2022-11-09T12:59:52;14.40;99.90
44190;DHT22;29856;52.144;5.430;2022-11-09T13:02:50;14.50;99.90
44190;DHT22;29856;52.144;5.430;2022-11-09T13:05:31;14.60;99.90
44190;DHT22;29856;52.144;5.430;2022-11-09T13:07:59;14.50;99.90
44190;DHT22;29856;52.144;5.430;2022-11-09T13:10:34;14.50;99.90
44190;DHT22;29856;52.144;5.430;2022-11-09T13:15:35;14.70;99.90
44190;DHT22;29856;52.144;5.430;2022-11-09T13:18:02;14.70;99.90
44190;DHT22;29856;52.144;5.430;2022-11-09T13:23:04;14.80;99.90
44190;DHT22;29856;52.144;5.430;2022-11-09T13:25:49;14.70;99.90
44190;DHT22;29856;52.144;5.430;2022-11-09T13:30:57;14.60;99.90
44190;DHT22;29856;52.144;5.430;2022-11-09T13:33:25;14.60;99.90
44190;DHT22;29856;52.144;5.430;2022-11-09T13:38:27;14.50;99.90
44190;DHT22;29856;52.144;5.430;2022-11-09T13:40:58;14.50;99.90
44190;DHT22;29856;52.144;5.430;2022-11-09T13:43:29;14.50;99.90
44190;DHT22;29856;52.144;5.430;2022-11-09T13:46:00;14.50;99.90
44190;DHT22;29856;52.144;5.430;2022-11-09T13:48:37;14.50;99.90
44190;DHT22;29856;52.144;5.430;2022-11-09T13:51:18;14.50;99.90
44190;DHT22;29856;52.144;5.430;2022-11-09T13:53:55;14.60;99.90
44190;DHT22;29856;52.144;5.430;2022-11-09T13:56:38;14.70;99.90
44190;DHT22;29856;52.144;5.430;2022-11-09T14:01:31;14.80;99.90
44190;DHT22;29856;52.144;5.430;2022-11-09T14:03:57;14.80;99.90
44190;DHT22;29856;52.144;5.430;2022-11-09T14:06:24;14.80;99.90
44190;DHT22;29856;52.144;5.430;2022-11-09T14:08:50;14.80;99.90
44190;DHT22;29856;52.144;5.430;2022-11-09T14:21:57;14.70;99.90
44190;DHT22;29856;52.144;5.430;2022-11-09T14:24:28;14.60;99.90
44190;DHT22;29856;52.144;5.430;2022-11-09T14:27:11;14.60;99.90
44190;DHT22;29856;52.144;5.430;2022-11-09T14:32:30;14.60;99.90
44190;DHT22;29856;52.144;5.430;2022-11-09T14:35:18;14.50;99.90
44190;DHT22;29856;52.144;5.430;2022-11-09T14:37:44;14.50;99.90
44190;DHT22;29856;52.144;5.430;2022-11-09T14:40:21;14.50;99.90
44190;DHT22;29856;52.144;5.430;2022-11-09T14:43:04;14.50;99.90
44190;DHT22;29856;52.144;5.430;2022-11-09T14:45:34;14.40;99.90
44190;DHT22;29856;52.144;5.430;2022-11-09T14:48:00;14.40;99.90
44190;DHT22;29856;52.144;5.430;2022-11-09T14:50:32;14.30;99.90
44190;DHT22;29856;52.144;5.430;2022-11-09T14:53:00;14.30;99.90
44190;DHT22;29856;52.144;5.430;2022-11-09T14:55:27;14.30;99.90
44190;DHT22;29856;52.144;5.430;2022-11-09T14:57:54;14.30;99.90
44190;DHT22;29856;52.144;5.430;2022-11-09T15:00:25;14.30;99.90
44190;DHT22;29856;52.144;5.430;2022-11-09T15:02:51;14.30;99.90
44190;DHT22;29856;52.144;5.430;2022-11-09T15:07:53;14.20;99.90
44190;DHT22;29856;52.144;5.430;2022-11-09T15:10:19;14.10;99.90
44190;DHT22;29856;52.144;5.430;2022-11-09T15:12:50;14.10;99.90
44190;DHT22;29856;52.144;5.430;2022-11-09T15:15:20;14.00;99.90
44190;DHT22;29856;52.144;5.430;2022-11-09T15:17:46;14.00;99.90
44190;DHT22;29856;52.144;5.430;2022-11-09T15:30:39;13.80;99.90
44190;DHT22;29856;52.144;5.430;2022-11-09T15:36:00;13.70;99.90
44190;DHT22;29856;52.144;5.430;2022-11-09T15:40:52;13.70;99.90
44190;DHT22;29856;52.144;5.430;2022-11-09T15:43:18;13.70;99.90
44190;DHT22;29856;52.144;5.430;2022-11-09T15:45:43;13.60;99.90
44190;DHT22;29856;52.144;5.430;2022-11-09T15:48:09;13.60;99.90
44190;DHT22;29856;52.144;5.430;2022-11-09T15:50:34;13.60;99.90
44190;DHT22;29856;52.144;5.430;2022-11-09T15:53:00;13.50;99.90
44190;DHT22;29856;52.144;5.430;2022-11-09T15:55:25;13.50;99.90
44190;DHT22;29856;52.144;5.430;2022-11-09T15:57:51;13.50;99.90
44190;DHT22;29856;52.144;5.430;2022-11-09T16:00:19;13.50;99.90
44190;DHT22;29856;52.144;5.430;2022-11-09T16:02:45;13.50;99.90
44190;DHT22;29856;52.144;5.430;2022-11-09T16:05:10;13.50;99.90
44190;DHT22;29856;52.144;5.430;2022-11-09T16:07:36;13.40;99.90
44190;DHT22;29856;52.144;5.430;2022-11-09T16:10:02;13.50;99.90
44190;DHT22;29856;52.144;5.430;2022-11-09T16:12:27;13.40;99.90
44190;DHT22;29856;52.144;5.430;2022-11-09T16:14:53;13.40;99.90
44190;DHT22;29856;52.144;5.430;2022-11-09T16:17:18;13.40;99.90
44190;DHT22;29856;52.144;5.430;2022-11-09T16:19:44;13.40;99.90
44190;DHT22;29856;52.144;5.430;2022-11-09T16:22:09;13.40;99.90
44190;DHT22;29856;52.144;5.430;2022-11-09T16:24:35;13.40;99.90
44190;DHT22;29856;52.144;5.430;2022-11-09T16:27:00;13.40;99.90
44190;DHT22;29856;52.144;5.430;2022-11-09T16:29:27;13.40;99.90
44190;DHT22;29856;52.144;5.430;2022-11-09T16:31:53;13.40;99.90
44190;DHT22;29856;52.144;5.430;2022-11-09T16:34:19;13.40;99.90
44190;DHT22;29856;52.144;5.430;2022-11-09T16:36:45;13.40;99.90
44190;DHT22;29856;52.144;5.430;2022-11-09T16:39:11;13.40;99.90
44190;DHT22;29856;52.144;5.430;2022-11-09T16:41:39;13.40;99.90
44190;DHT22;29856;52.144;5.430;2022-11-09T16:44:05;13.40;99.90
44190;DHT22;29856;52.144;5.430;2022-11-09T16:46:31;13.40;99.90
44190;DHT22;29856;52.144;5.430;2022-11-09T16:49:00;13.40;99.90
44190;DHT22;29856;52.144;5.430;2022-11-09T16:51:25;13.40;99.90
44190;DHT22;29856;52.144;5.430;2022-11-09T16:53:51;13.30;99.90
44190;DHT22;29856;52.144;5.430;2022-11-09T16:56:16;13.30;99.90
44190;DHT22;29856;52.144;5.430;2022-11-09T16:58:42;13.30;99.90
44190;DHT22;29856;52.144;5.430;2022-11-09T17:01:09;13.30;99.90
44190;DHT22;29856;52.144;5.430;2022-11-09T17:03:34;13.30;99.90
44190;DHT22;29856;52.144;5.430;2022-11-09T17:06:01;13.30;99.90
44190;DHT22;29856;52.144;5.430;2022-11-09T17:08:27;13.40;99.90
44190;DHT22;29856;52.144;5.430;2022-11-09T17:10:53;13.30;99.90
44190;DHT22;29856;52.144;5.430;2022-11-09T17:13:19;13.30;99.90
44190;DHT22;29856;52.144;5.430;2022-11-09T17:15:47;13.20;99.90
44190;DHT22;29856;52.144;5.430;2022-11-09T17:18:14;13.20;99.90
44190;DHT22;29856;52.144;5.430;2022-11-09T17:20:44;13.20;99.90
44190;DHT22;29856;52.144;5.430;2022-11-09T17:23:10;13.20;99.90